Time;durP1;ratioP1;P1;durP2;ratioP2;P2;SDS_P1;SDS_P2;PMS_P1;PMS_P2;Temp;Humidity;BMP_temperature;BMP_pressure;BME280_temperature;BME280_humidity;BME280_pressure;Samples;Min_cycle;Max_cycle;Signal;HPM_P1;HPM_P2
2022/03/16 00:00:49;;;;;;;6.28;3.80;;;;;;;9.80;39.72;100052.06;4268918;33;34360;-94
2022/03/16 00:03:39;;;;;;;8.18;4.35;;;;;;;9.70;40.75;100019.31;4269376;33;31992;-94
2022/03/16 00:06:08;;;;;;;6.97;3.80;;;;;;;9.93;41.24;100003.63;4253390;33;34602;-96
2022/03/16 00:08:38;;;;;;;7.00;3.85;;;;;;;9.72;42.57;100008.06;4254518;33;34281;-94
2022/03/16 00:11:07;;;;;;;5.57;3.87;;;;;;;9.92;41.96;100013.13;4251129;33;33437;-95
2022/03/16 00:13:49;;;;;;;5.82;3.60;;;;;;;9.95;42.13;100025.22;4263414;33;33456;-93
2022/03/16 00:16:31;;;;;;;7.25;4.18;;;;;;;10.20;41.58;100032.00;4268548;33;33403;-95
2022/03/16 00:19:00;;;;;;;7.95;4.53;;;;;;;10.06;41.59;100031.22;4260491;33;34144;-95
2022/03/16 00:21:30;;;;;;;6.03;4.05;;;;;;;9.77;41.43;100032.22;4255289;33;33525;-93
2022/03/16 00:24:39;;;;;;;7.07;3.62;;;;;;;9.90;41.50;100029.56;4271568;33;34414;-94
2022/03/16 00:27:24;;;;;;;6.95;3.83;;;;;;;9.97;40.79;100019.16;4268147;33;33507;-94
2022/03/16 00:30:13;;;;;;;8.82;5.57;;;;;;;9.71;41.55;100010.66;4262536;33;34449;-91
2022/03/16 00:32:44;;;;;;;8.65;4.43;;;;;;;9.62;43.52;100006.37;4260756;33;34244;-93
2022/03/16 00:35:13;;;;;;;8.60;4.03;;;;;;;9.87;43.48;100007.13;4268750;33;33524;-91
2022/03/16 00:37:42;;;;;;;10.05;4.57;;;;;;;9.83;44.46;100003.69;4269531;33;33864;-92
2022/03/16 00:40:13;;;;;;;7.50;4.70;;;;;;;9.75;44.93;100008.03;4268002;33;33737;-90
2022/03/16 00:42:42;;;;;;;7.03;4.60;;;;;;;9.99;46.00;100004.47;4267591;33;34345;-91
2022/03/16 00:45:11;;;;;;;9.63;4.80;;;;;;;9.84;46.39;100001.97;4269951;33;33289;-92
2022/03/16 00:47:39;;;;;;;7.85;4.70;;;;;;;9.78;46.74;99999.38;4259983;33;33720;-90
2022/03/16 00:50:11;;;;;;;7.53;5.00;;;;;;;9.95;46.38;100001.91;4262032;33;34541;-91
2022/03/16 00:52:40;;;;;;;8.43;5.35;;;;;;;9.80;47.32;99998.50;4270592;33;33788;-91
2022/03/16 00:55:10;;;;;;;6.68;4.70;;;;;;;9.75;47.98;99989.91;4267082;33;31889;-92
2022/03/16 00:57:38;;;;;;;8.40;4.85;;;;;;;9.66;47.95;99981.31;4263991;33;34132;-92
2022/03/16 01:00:11;;;;;;;7.95;4.57;;;;;;;9.27;49.85;99975.44;4267055;33;34651;-90
2022/03/16 01:02:40;;;;;;;8.93;4.20;;;;;;;9.44;48.98;99977.97;4268550;33;33501;-90
2022/03/16 01:05:10;;;;;;;7.62;4.72;;;;;;;9.67;48.79;99968.38;4272493;33;34650;-91
2022/03/16 01:07:39;;;;;;;12.43;5.18;;;;;;;9.23;50.61;99972.00;4267562;33;33305;-91
2022/03/16 01:10:09;;;;;;;7.75;4.45;;;;;;;9.45;49.59;99975.38;4267192;33;33744;-92
2022/03/16 01:12:37;;;;;;;9.43;5.65;;;;;;;9.34;49.85;99967.62;4267608;33;33801;-91
2022/03/16 01:15:08;;;;;;;9.18;4.78;;;;;;;9.59;48.85;99970.13;4263297;33;33333;-91
2022/03/16 01:17:36;;;;;;;7.20;4.05;;;;;;;9.63;48.93;99974.44;4269619;33;33545;-90
2022/03/16 01:20:07;;;;;;;8.35;4.93;;;;;;;9.57;48.35;99977.06;4264785;33;34612;-90
2022/03/16 01:22:37;;;;;;;7.68;4.12;;;;;;;9.52;49.15;99979.66;4266592;33;34554;-89
2022/03/16 01:25:07;;;;;;;8.07;5.68;;;;;;;9.55;49.07;99987.41;4263457;33;33237;-91
2022/03/16 01:27:36;;;;;;;8.85;4.70;;;;;;;9.75;49.05;99992.50;4264837;33;33886;-92
2022/03/16 01:30:06;;;;;;;9.73;5.60;;;;;;;9.94;48.43;99997.59;4271398;33;35414;-91
2022/03/16 01:32:35;;;;;;;7.43;5.40;;;;;;;9.75;47.75;100000.28;4267934;33;34297;-92
2022/03/16 01:35:04;;;;;;;8.20;4.82;;;;;;;10.11;46.38;100007.84;4266780;33;33428;-91
2022/03/16 01:37:33;;;;;;;9.77;4.50;;;;;;;9.90;47.25;100008.84;4265064;33;33937;-91
2022/03/16 01:40:05;;;;;;;9.50;5.10;;;;;;;9.81;48.16;100015.81;4267042;33;33250;-91
2022/03/16 01:42:34;;;;;;;8.02;4.25;;;;;;;9.72;47.61;100020.16;4266446;33;33054;-92
2022/03/16 01:45:07;;;;;;;9.32;4.95;;;;;;;9.66;48.19;100021.03;4270728;33;31371;-92
2022/03/16 01:47:36;;;;;;;8.27;4.73;;;;;;;9.63;48.28;100018.47;4265931;33;32997;-92
2022/03/16 01:50:08;;;;;;;11.57;5.05;;;;;;;9.74;48.41;100008.06;4269087;33;33840;-91
2022/03/16 01:52:37;;;;;;;8.18;5.03;;;;;;;9.50;48.81;100002.13;4265686;33;34322;-91
2022/03/16 01:55:08;;;;;;;15.73;6.37;;;;;;;9.69;48.86;100012.38;4267569;33;32422;-91
2022/03/16 01:57:40;;;;;;;11.52;6.32;;;;;;;9.67;49.08;100003.78;4258522;33;32082;-92
2022/03/16 02:00:11;;;;;;;9.73;5.18;;;;;;;9.62;49.33;99998.63;4259268;33;33809;-94
2022/03/16 02:02:40;;;;;;;11.32;5.30;;;;;;;9.57;49.95;99993.47;4264744;33;33514;-93
2022/03/16 02:05:09;;;;;;;9.60;5.53;;;;;;;9.54;50.19;99995.19;4268983;33;34518;-92
2022/03/16 02:07:38;;;;;;;11.00;6.37;;;;;;;9.47;50.69;99996.97;4267716;33;34639;-91
2022/03/16 02:10:10;;;;;;;9.88;5.90;;;;;;;9.52;50.53;99996.91;4273436;33;34795;-92
2022/03/16 02:12:47;;;;;;;9.85;6.45;;;;;;;9.58;50.57;100004.66;4266673;33;33902;-94
2022/03/16 02:15:16;;;;;;;10.23;5.90;;;;;;;9.55;50.83;99992.59;4261732;33;33508;-92
2022/03/16 02:17:46;;;;;;;9.52;5.57;;;;;;;9.62;50.71;99993.44;4265693;33;33438;-93
2022/03/16 02:20:15;;;;;;;9.10;5.50;;;;;;;9.65;50.63;99980.47;4259668;33;33808;-92
2022/03/16 02:22:56;;;;;;;9.93;5.97;;;;;;;9.56;50.67;99981.34;4260471;33;34460;-92
2022/03/16 02:25:25;;;;;;;;;;;;;;;9.58;50.56;99977.03;4267041;33;33228;-92
2022/03/16 02:27:54;;;;;;;7.75;4.97;;;;;;;9.53;50.64;99973.59;4267979;33;34855;-91
2022/03/16 02:30:25;;;;;;;11.23;5.97;;;;;;;9.53;50.57;99975.34;4264657;33;33583;-91
2022/03/16 02:32:54;;;;;;;10.88;6.30;;;;;;;9.57;50.51;99967.56;4262421;33;33911;-91
2022/03/16 02:35:23;;;;;;;10.20;6.03;;;;;;;9.55;50.75;99958.06;4266901;33;33714;-91
2022/03/16 02:37:52;;;;;;;11.07;6.05;;;;;;;9.52;50.84;99951.19;4271530;33;34204;-91
2022/03/16 02:40:22;;;;;;;8.77;5.62;;;;;;;9.65;50.84;99946.78;4266118;33;34720;-92
2022/03/16 02:42:51;;;;;;;10.15;5.65;;;;;;;9.58;51.11;99934.75;4265280;33;34570;-91
2022/03/16 02:45:20;;;;;;;10.25;6.68;;;;;;;9.57;51.14;99936.47;4263972;33;33449;-91
2022/03/16 02:47:49;;;;;;;10.07;6.18;;;;;;;9.55;51.23;99934.75;4263486;33;33563;-89
2022/03/16 02:50:19;;;;;;;8.90;5.37;;;;;;;9.68;51.28;99928.62;4266894;33;34010;-91
2022/03/16 02:52:48;;;;;;;8.05;5.00;;;;;;;9.42;52.25;99928.75;4259922;33;34442;-91
2022/03/16 02:55:38;;;;;;;8.32;4.55;;;;;;;9.47;52.21;99923.56;4259033;33;33956;-90
2022/03/16 02:58:07;;;;;;;7.70;5.00;;;;;;;9.53;52.31;99923.53;4261147;33;35341;-91
2022/03/16 03:00:36;;;;;;;10.65;5.95;;;;;;;9.50;52.53;99914.06;4266441;33;33806;-91
2022/03/16 03:03:05;;;;;;;7.30;4.37;;;;;;;9.60;53.16;99920.06;4264631;33;33823;-91
2022/03/16 03:05:34;;;;;;;9.48;5.37;;;;;;;9.54;53.34;99910.59;4272208;33;33796;-90
2022/03/16 03:08:03;;;;;;;8.77;6.10;;;;;;;9.60;53.35;99912.28;4266995;33;33087;-91
2022/03/16 03:10:32;;;;;;;9.25;4.70;;;;;;;9.55;53.67;99911.44;4266172;33;34614;-90
2022/03/16 03:13:04;;;;;;;8.27;4.47;;;;;;;9.57;53.71;99907.97;4267461;33;33707;-90
2022/03/16 03:15:33;;;;;;;8.52;4.90;;;;;;;9.71;53.59;99910.50;4269143;33;33311;-90
2022/03/16 03:18:02;;;;;;;9.38;4.30;;;;;;;9.59;54.25;99898.47;4269719;33;32535;-89
2022/03/16 03:20:31;;;;;;;6.55;4.65;;;;;;;9.64;54.34;99903.63;4268097;33;33957;-88
2022/03/16 03:23:00;;;;;;;7.47;4.87;;;;;;;9.72;54.87;99894.06;4262439;33;33536;-89
2022/03/16 03:25:28;;;;;;;7.68;4.18;;;;;;;9.54;55.56;99887.28;4262593;33;34004;-88
2022/03/16 03:27:57;;;;;;;10.15;5.15;;;;;;;9.69;56.30;99882.84;4266897;33;33867;-88
2022/03/16 03:30:27;;;;;;;8.20;5.05;;;;;;;9.61;57.32;99872.53;4268190;33;32357;-88
2022/03/16 03:32:56;;;;;;;6.43;3.77;;;;;;;9.61;58.45;99860.44;4267456;33;34216;-89
2022/03/16 03:35:25;;;;;;;4.78;3.25;;;;;;;9.57;58.99;99850.16;4258488;33;32369;-88
2022/03/16 03:37:54;;;;;;;7.10;4.00;;;;;;;9.43;59.49;99839.00;4259731;33;33779;-88
2022/03/16 03:40:23;;;;;;;7.47;4.90;;;;;;;9.54;59.88;99842.38;4264256;33;32180;-88
2022/03/16 03:42:52;;;;;;;7.93;4.30;;;;;;;9.35;60.43;99834.75;4261623;33;34672;-88
2022/03/16 03:45:21;;;;;;;7.62;4.60;;;;;;;9.34;60.50;99824.38;4265564;33;34003;-89
2022/03/16 03:47:51;;;;;;;7.65;4.72;;;;;;;9.37;60.41;99811.41;4262081;33;33686;-89
2022/03/16 03:50:20;;;;;;;7.87;4.82;;;;;;;9.26;60.94;99811.50;4262590;33;33132;-89
2022/03/16 03:52:49;;;;;;;7.00;4.47;;;;;;;9.08;61.49;99816.75;4257897;33;34497;-88
2022/03/16 03:55:18;;;;;;;8.88;5.07;;;;;;;9.03;61.91;99818.50;4260728;33;32853;-88
2022/03/16 03:57:47;;;;;;;12.77;6.87;;;;;;;9.09;61.28;99806.41;4263940;33;34533;-89
2022/03/16 04:00:16;;;;;;;8.48;4.35;;;;;;;8.94;61.53;99801.31;4257295;33;35553;-91
2022/03/16 04:02:49;;;;;;;8.77;6.00;;;;;;;8.87;61.65;99805.66;4258730;33;33098;-89
2022/03/16 04:05:20;;;;;;;11.73;5.82;;;;;;;8.50;62.88;99803.19;4266434;33;34222;-89
2022/03/16 04:07:49;;;;;;;11.23;4.12;;;;;;;8.87;61.72;99790.13;4265749;33;34257;-90
2022/03/16 04:10:18;;;;;;;9.48;5.87;;;;;;;8.72;62.04;99787.59;4274321;33;33669;-89
2022/03/16 04:12:47;;;;;;;9.57;5.40;;;;;;;8.74;61.48;99793.63;4268510;33;33625;-90
2022/03/16 04:15:18;;;;;;;8.70;5.22;;;;;;;8.46;61.57;99785.97;4260446;33;33380;-90
2022/03/16 04:17:47;;;;;;;9.27;5.93;;;;;;;8.47;61.64;99779.06;4267277;33;35107;-90
2022/03/16 04:20:15;;;;;;;7.53;4.60;;;;;;;8.77;60.44;99785.88;4267874;33;33911;-90
2022/03/16 04:22:45;;;;;;;8.43;4.90;;;;;;;8.91;59.55;99780.63;4266732;33;32788;-91
2022/03/16 04:25:14;;;;;;;9.95;5.70;;;;;;;8.81;60.04;99786.72;4266282;33;34035;-90
2022/03/16 04:27:43;;;;;;;7.47;5.05;;;;;;;8.75;60.09;99785.00;4265334;33;34495;-91
2022/03/16 04:30:13;;;;;;;8.35;5.03;;;;;;;8.90;59.56;99795.28;4265898;33;33616;-92
2022/03/16 04:32:41;;;;;;;11.30;6.25;;;;;;;8.90;59.35;99797.88;4266995;33;34681;-91
2022/03/16 04:35:10;;;;;;;8.45;5.35;;;;;;;8.84;59.55;99792.72;4271502;33;31940;-90
2022/03/16 04:37:39;;;;;;;7.80;4.47;;;;;;;9.02;58.77;99784.00;4268525;33;34471;-90
2022/03/16 04:40:10;;;;;;;9.43;5.87;;;;;;;9.02;58.69;99776.25;4263118;33;33921;-90
2022/03/16 04:42:41;;;;;;;;;;;;;;;9.00;58.87;99777.12;4268569;33;34228;-90
2022/03/16 04:45:10;;;;;;;8.47;4.67;;;;;;;9.11;58.13;99781.38;4263135;33;33269;-90
2022/03/16 04:47:39;;;;;;;6.95;4.62;;;;;;;9.33;56.65;99784.69;4270328;33;34118;-91
2022/03/16 04:50:09;;;;;;;9.15;5.28;;;;;;;9.16;57.41;99782.22;4270021;33;33899;-91
2022/03/16 04:52:44;;;;;;;10.88;5.70;;;;;;;9.00;58.23;99777.97;4267745;33;32179;-92
2022/03/16 04:55:15;;;;;;;7.87;5.15;;;;;;;9.01;58.28;99795.22;4263127;33;34171;-90
2022/03/16 04:57:43;;;;;;;8.25;5.47;;;;;;;8.95;58.24;99793.53;4262400;33;34238;-90
2022/03/16 05:00:13;;;;;;;6.70;4.37;;;;;;;8.98;57.64;99803.84;4261225;33;32394;-90
2022/03/16 05:02:42;;;;;;;8.80;4.78;;;;;;;9.22;57.16;99806.34;4264820;33;33626;-90
2022/03/16 05:05:11;;;;;;;10.13;5.53;;;;;;;9.33;56.29;99807.12;4268250;33;33714;-92
2022/03/16 05:07:40;;;;;;;8.18;4.75;;;;;;;9.36;56.61;99804.53;4265945;33;34253;-90
2022/03/16 05:10:11;;;;;;;8.45;5.07;;;;;;;9.36;56.88;99813.16;4267798;33;34852;-90
2022/03/16 05:12:42;;;;;;;7.05;3.95;;;;;;;9.35;57.31;99821.78;4263646;33;33318;-90
2022/03/16 05:15:13;;;;;;;;;;;;;;;9.48;57.21;99824.31;4269837;33;34048;-91
2022/03/16 05:17:42;;;;;;;5.50;3.53;;;;;;;9.49;57.21;99821.69;4258853;33;33717;-91
2022/03/16 05:20:12;;;;;;;9.20;4.68;;;;;;;9.76;55.82;99831.00;4260320;33;33121;-90
2022/03/16 05:22:42;;;;;;;8.85;5.50;;;;;;;9.46;56.37;99824.31;4259266;33;33744;-91
2022/03/16 05:25:11;;;;;;;7.47;4.30;;;;;;;9.41;57.01;99823.47;4265807;33;34374;-90
2022/03/16 05:27:41;;;;;;;7.12;4.05;;;;;;;9.61;56.42;99828.50;4269464;33;33339;-90
2022/03/16 05:30:12;;;;;;;9.35;4.87;;;;;;;9.59;56.25;99820.78;4262334;33;34716;-91
2022/03/16 05:32:41;;;;;;;8.35;5.57;;;;;;;9.33;57.02;99831.31;4263061;33;33748;-91
2022/03/16 05:35:13;;;;;;;9.18;4.57;;;;;;;9.39;57.18;99825.22;4266038;33;33327;-91
2022/03/16 05:37:42;;;;;;;8.50;5.35;;;;;;;9.38;57.43;99821.78;4262217;33;33305;-91
2022/03/16 05:40:11;;;;;;;6.82;4.87;;;;;;;9.37;58.08;99819.19;4270710;33;34061;-90
2022/03/16 05:42:41;;;;;;;7.15;4.65;;;;;;;9.54;57.80;99816.47;4262170;33;32475;-90
2022/03/16 05:45:10;;;;;;;8.10;4.65;;;;;;;9.66;58.47;99818.13;4265638;33;32651;-91
2022/03/16 05:47:40;;;;;;;6.28;3.65;;;;;;;9.56;59.02;99820.78;4263404;33;33440;-90
2022/03/16 05:50:09;;;;;;;7.90;5.03;;;;;;;9.57;58.87;99819.06;4266291;33;33883;-92
2022/03/16 05:52:38;;;;;;;7.15;3.97;;;;;;;9.45;60.13;99827.78;4268817;33;32179;-90
2022/03/16 05:55:09;;;;;;;11.35;4.97;;;;;;;9.92;58.14;99833.47;4265923;33;33436;-91
2022/03/16 05:57:39;;;;;;;8.30;3.60;;;;;;;9.86;58.27;99825.72;4259779;33;33694;-91
2022/03/16 06:00:14;;;;;;;6.43;4.32;;;;;;;9.88;58.50;99842.13;4264249;33;34352;-90
2022/03/16 06:02:44;;;;;;;8.15;4.68;;;;;;;9.67;59.72;99858.72;4261446;33;34043;-91
2022/03/16 06:05:14;;;;;;;7.25;4.43;;;;;;;9.66;59.66;99863.00;4269202;33;33320;-92
2022/03/16 06:07:43;;;;;;;8.80;4.30;;;;;;;9.68;59.40;99860.41;4271559;33;34329;-90
2022/03/16 06:10:15;;;;;;;7.12;4.20;;;;;;;9.79;59.00;99853.44;4268476;33;33691;-90
2022/03/16 06:12:55;;;;;;;6.40;4.30;;;;;;;9.80;58.77;99850.81;4260457;33;34272;-90
2022/03/16 06:15:27;;;;;;;6.55;3.53;;;;;;;9.94;58.32;99855.91;4268881;33;33390;-90
2022/03/16 06:17:55;;;;;;;;;;;;;;;9.67;59.31;99859.56;4267777;33;33596;-91
2022/03/16 06:20:25;;;;;;;7.15;4.05;;;;;;;10.25;57.13;99864.28;4268139;33;33588;-91
2022/03/16 06:22:53;;;;;;;5.18;3.58;;;;;;;10.19;57.35;99863.47;4265982;33;34074;-90
2022/03/16 06:25:24;;;;;;;7.93;4.90;;;;;;;10.00;57.76;99865.34;4266106;33;32512;-90
2022/03/16 06:27:55;;;;;;;7.03;4.32;;;;;;;10.13;57.80;99859.22;4263096;33;32673;-90
2022/03/16 06:30:25;;;;;;;5.57;3.80;;;;;;;9.86;59.35;99864.59;4265503;33;32423;-90
2022/03/16 06:32:55;;;;;;;9.17;4.70;;;;;;;10.05;59.15;99866.19;4263115;33;33354;-90
2022/03/16 06:35:23;;;;;;;6.40;3.65;;;;;;;9.82;60.47;99863.78;4272096;33;33943;-90
2022/03/16 06:37:52;;;;;;;6.30;4.25;;;;;;;10.02;59.99;99861.88;4258529;33;32345;-91
2022/03/16 06:40:21;;;;;;;6.15;4.07;;;;;;;10.04;60.18;99860.12;4264946;33;34161;-90
2022/03/16 06:42:51;;;;;;;6.00;3.85;;;;;;;10.24;59.86;99859.09;4267053;33;34068;-90
2022/03/16 06:45:21;;;;;;;6.03;4.12;;;;;;;9.92;61.55;99854.19;4265822;33;33213;-89
2022/03/16 06:47:51;;;;;;;6.87;4.45;;;;;;;10.26;60.60;99866.00;4270976;33;33683;-90
2022/03/16 06:50:20;;;;;;;8.43;4.28;;;;;;;10.26;60.91;99871.19;4265327;33;33381;-90
2022/03/16 06:52:49;;;;;;;6.53;4.07;;;;;;;10.14;61.31;99866.09;4262996;33;33146;-90
2022/03/16 06:55:18;;;;;;;5.75;3.42;;;;;;;10.18;61.52;99875.59;4260322;33;33399;-90
2022/03/16 06:57:46;;;;;;;7.25;4.25;;;;;;;10.24;61.87;99872.94;4255588;33;31990;-89
2022/03/16 07:00:16;;;;;;;4.75;3.28;;;;;;;10.32;61.89;99875.50;4264780;33;33671;-89
2022/03/16 07:02:51;;;;;;;6.35;3.70;;;;;;;10.20;62.65;99881.63;4265142;33;34716;-90
2022/03/16 07:05:21;;;;;;;7.53;4.47;;;;;;;10.26;62.74;99878.97;4266593;33;33140;-90
2022/03/16 07:07:50;;;;;;;7.57;4.43;;;;;;;10.61;61.47;99883.00;4264141;33;33435;-90
2022/03/16 07:10:20;;;;;;;8.40;4.72;;;;;;;10.31;62.47;99883.28;4265112;33;34739;-89
2022/03/16 07:12:49;;;;;;;5.50;3.95;;;;;;;10.40;62.21;99885.81;4272797;33;33626;-89
2022/03/16 07:15:17;;;;;;;6.85;3.37;;;;;;;10.42;62.53;99886.66;4266828;33;33526;-90
2022/03/16 07:17:46;;;;;;;7.40;3.62;;;;;;;10.37;62.64;99888.44;4267558;33;34489;-88
2022/03/16 07:20:17;;;;;;;6.72;4.22;;;;;;;10.22;63.50;99886.78;4262393;33;33326;-89
2022/03/16 07:22:45;;;;;;;5.18;3.40;;;;;;;10.38;63.46;99879.75;4264268;33;33295;-90
2022/03/16 07:25:23;;;;;;;7.53;4.55;;;;;;;10.71;62.46;99883.75;4260381;33;33973;-91
2022/03/16 07:27:51;;;;;;;6.30;4.22;;;;;;;10.43;63.34;99886.63;4265343;33;33771;-90
2022/03/16 07:30:20;;;;;;;5.85;3.72;;;;;;;10.45;63.69;99887.47;4264502;33;32835;-91
2022/03/16 07:32:49;;;;;;;5.22;3.45;;;;;;;10.52;63.56;99885.69;4262545;33;34541;-89
2022/03/16 07:35:24;;;;;;;6.30;4.40;;;;;;;10.29;64.46;99875.50;4264979;33;33097;-90
2022/03/16 07:37:54;;;;;;;6.87;4.05;;;;;;;10.31;64.53;99883.28;4263839;33;33562;-90
2022/03/16 07:40:23;;;;;;;5.60;3.53;;;;;;;10.54;64.05;99885.69;4272844;33;33675;-91
2022/03/16 07:42:53;;;;;;;6.30;3.83;;;;;;;10.51;64.39;99880.50;4264786;33;33829;-92
2022/03/16 07:45:22;;;;;;;5.93;3.60;;;;;;;10.54;64.40;99893.47;4259787;33;33442;-90
2022/03/16 07:47:52;;;;;;;6.75;4.18;;;;;;;10.26;65.41;99891.06;4264533;33;33412;-90
2022/03/16 07:50:23;;;;;;;5.57;3.20;;;;;;;10.13;66.05;99889.47;4264923;33;33892;-90
2022/03/16 07:52:52;;;;;;;6.03;4.03;;;;;;;10.51;64.90;99896.94;4265837;33;35148;-91
2022/03/16 07:55:20;;;;;;;6.70;4.35;;;;;;;10.44;64.97;99901.31;4263338;33;34092;-89
2022/03/16 07:57:50;;;;;;;7.35;3.53;;;;;;;10.33;65.58;99900.56;4261576;33;31806;-90
2022/03/16 08:00:19;;;;;;;6.47;3.47;;;;;;;10.33;66.04;99897.09;4264127;33;32344;-90
2022/03/16 08:02:48;;;;;;;5.82;3.75;;;;;;;10.11;66.88;99901.56;4259492;33;34457;-89
2022/03/16 08:05:21;;;;;;;6.43;4.40;;;;;;;10.23;66.81;99904.91;4267251;33;33998;-90
2022/03/16 08:07:51;;;;;;;7.28;3.87;;;;;;;10.20;66.78;99902.37;4269632;33;33351;-90
2022/03/16 08:10:20;;;;;;;4.85;3.40;;;;;;;10.30;66.67;99902.31;4265491;33;33518;-90
2022/03/16 08:12:49;;;;;;;6.35;3.65;;;;;;;10.44;66.04;99908.25;4267374;33;33537;-92
2022/03/16 08:18:13;;;;;;;5.40;3.78;;;;;;;10.26;67.28;99906.62;4260190;33;33944;-88
2022/03/16 08:20:42;;;;;;;6.25;3.58;;;;;;;10.21;67.02;99903.22;4271231;33;33376;-89
2022/03/16 08:23:13;;;;;;;7.53;4.20;;;;;;;10.46;66.35;99915.13;4264579;33;33893;-90
2022/03/16 08:25:55;;;;;;;5.57;3.97;;;;;;;10.23;67.26;99911.84;4261135;33;32977;-91
2022/03/16 08:28:24;;;;;;;5.68;4.20;;;;;;;9.92;67.99;99916.41;4261811;33;33253;-91
2022/03/16 08:30:53;;;;;;;7.50;4.07;;;;;;;9.98;67.30;99917.22;4262118;33;33549;-89
2022/03/16 08:33:23;;;;;;;6.45;4.25;;;;;;;9.98;66.69;99924.16;4270915;33;34205;-90
2022/03/16 08:35:52;;;;;;;7.18;4.40;;;;;;;9.94;66.42;99920.69;4266194;33;33966;-90
2022/03/16 08:38:22;;;;;;;7.72;4.32;;;;;;;9.87;66.58;99923.34;4266853;33;34606;-91
2022/03/16 08:40:51;;;;;;;7.32;4.07;;;;;;;9.82;66.79;99924.22;4266253;33;33099;-90
2022/03/16 08:43:20;;;;;;;6.82;5.10;;;;;;;9.83;67.20;99928.56;4263218;33;34120;-90
2022/03/16 08:45:49;;;;;;;6.90;4.85;;;;;;;9.70;68.01;99934.66;4268345;33;33567;-91
2022/03/16 08:48:18;;;;;;;6.65;4.18;;;;;;;9.96;67.48;99944.88;4268923;33;34221;-90
2022/03/16 08:50:47;;;;;;;7.28;4.50;;;;;;;9.73;68.35;99937.22;4261729;33;34778;-92
2022/03/16 08:53:15;;;;;;;5.82;4.07;;;;;;;10.01;67.66;99939.66;4266330;33;33345;-92
2022/03/16 08:55:46;;;;;;;6.95;4.15;;;;;;;9.86;68.01;99944.94;4257659;33;33854;-90
2022/03/16 08:58:18;;;;;;;6.75;4.40;;;;;;;9.97;67.77;99956.09;4258384;33;33942;-89
2022/03/16 09:00:47;;;;;;;8.00;4.47;;;;;;;9.82;68.56;99960.50;4264333;33;33880;-89
2022/03/16 09:03:16;;;;;;;6.32;3.60;;;;;;;10.13;67.47;99957.72;4259621;33;33763;-90
2022/03/16 09:05:45;;;;;;;8.50;4.57;;;;;;;9.83;68.07;99969.13;4255596;33;32799;-91
2022/03/16 09:08:14;;;;;;;8.05;4.72;;;;;;;9.59;69.28;99964.94;4257663;33;33115;-91
2022/03/16 09:10:43;;;;;;;9.50;6.07;;;;;;;9.85;68.58;99967.41;4257980;33;34883;-90
2022/03/16 09:13:15;;;;;;;7.40;4.45;;;;;;;9.77;68.29;99967.44;4262713;33;33553;-91
2022/03/16 09:15:44;;;;;;;8.10;4.10;;;;;;;9.60;68.63;99970.13;4257732;33;32999;-90
2022/03/16 09:18:13;;;;;;;9.07;4.97;;;;;;;9.75;67.97;99974.38;4255201;33;33704;-90
2022/03/16 09:20:47;;;;;;;9.63;4.57;;;;;;;9.39;68.92;99976.25;4255356;33;32954;-89
2022/03/16 09:23:15;;;;;;;10.55;4.93;;;;;;;9.64;68.24;99983.94;4257588;33;34078;-90
2022/03/16 09:25:44;;;;;;;8.00;4.87;;;;;;;9.63;67.84;99986.53;4258891;33;33755;-89
2022/03/16 09:28:14;;;;;;;6.82;4.70;;;;;;;9.70;67.49;99989.06;4262610;33;33473;-89
2022/03/16 09:30:43;;;;;;;7.55;4.70;;;;;;;9.48;67.44;99990.91;4255843;33;34103;-90
2022/03/16 09:33:11;;;;;;;6.28;4.45;;;;;;;9.73;66.81;100004.59;4253052;33;33331;-90
2022/03/16 09:35:41;;;;;;;6.87;3.78;;;;;;;9.59;66.88;99999.50;4260827;33;33146;-89
2022/03/16 09:38:09;;;;;;;6.53;3.58;;;;;;;9.51;66.92;100008.16;4266221;33;34233;-89
2022/03/16 09:40:38;;;;;;;6.35;4.25;;;;;;;9.46;67.35;100009.91;4270317;33;34008;-89
2022/03/16 09:43:08;;;;;;;7.53;4.22;;;;;;;9.14;68.57;100003.09;4256623;33;33372;-90
2022/03/16 09:45:47;;;;;;;4.85;3.22;;;;;;;8.56;71.46;100016.94;4256847;33;31052;-90
2022/03/16 09:48:16;;;;;;;6.82;4.40;;;;;;;8.71;71.31;100013.50;4262554;33;33744;-90
2022/03/16 09:50:45;;;;;;;6.32;3.85;;;;;;;8.80;71.36;100026.44;4258027;33;33535;-90
2022/03/16 09:53:15;;;;;;;8.35;4.50;;;;;;;8.82;71.27;100027.28;4260492;33;34277;-89
2022/03/16 09:55:44;;;;;;;5.75;3.92;;;;;;;8.73;71.75;100035.06;4260981;33;32838;-90
2022/03/16 09:58:13;;;;;;;8.73;4.70;;;;;;;8.74;71.92;100029.00;4263005;33;33532;-89
2022/03/16 10:00:43;;;;;;;7.97;4.57;;;;;;;8.71;72.26;100037.63;4262300;33;31561;-89
2022/03/16 10:03:12;;;;;;;6.85;4.50;;;;;;;8.81;71.94;100029.88;4262132;33;34649;-90
2022/03/16 10:05:41;;;;;;;7.68;3.85;;;;;;;8.64;72.39;100035.06;4267548;33;33069;-89
2022/03/16 10:08:10;;;;;;;6.62;4.05;;;;;;;8.79;72.08;100039.34;4262107;33;33749;-89
2022/03/16 10:13:26;;;;;;;6.87;3.50;;;;;;;9.08;71.53;100040.19;4261087;33;85386;-92
2022/03/16 10:16:11;;;;;;;7.03;4.62;;;;;;;9.02;70.97;100049.69;4265830;33;32818;-89
2022/03/16 10:18:40;;;;;;;6.60;4.18;;;;;;;9.05;71.18;100044.50;4264273;33;33844;-90
2022/03/16 10:21:14;;;;;;;7.35;4.22;;;;;;;9.14;70.31;100045.38;4272512;33;33510;-90
2022/03/16 10:23:45;;;;;;;7.15;4.82;;;;;;;8.95;70.99;100046.25;4267308;33;34082;-90
2022/03/16 10:26:17;;;;;;;6.35;3.65;;;;;;;8.89;70.75;100046.25;4266670;33;32897;-89
2022/03/16 10:28:47;;;;;;;7.93;3.70;;;;;;;9.14;70.13;100050.53;4266154;33;34026;-91
2022/03/16 10:31:19;;;;;;;6.03;3.60;;;;;;;9.04;69.65;100060.91;4265705;33;33513;-89
2022/03/16 10:33:50;;;;;;;6.32;4.55;;;;;;;8.81;70.46;100058.34;4267275;33;33719;-89
2022/03/16 10:36:21;;;;;;;5.93;3.92;;;;;;;8.60;71.11;100057.47;4273649;33;33031;-91
2022/03/16 10:38:52;;;;;;;5.97;3.28;;;;;;;8.59;71.06;100057.47;4268614;33;34307;-90
2022/03/16 10:46:59;;;;;;;7.62;3.58;;;;;;;8.73;70.23;100050.56;4266527;33;33118;-91
2022/03/16 10:49:30;;;;;;;5.87;3.35;;;;;;;8.48;71.47;100053.16;4266005;33;35115;-90
2022/03/16 10:52:02;;;;;;;6.72;3.53;;;;;;;8.83;70.78;100056.59;4270936;33;33932;-91
2022/03/16 10:54:32;;;;;;;6.95;4.40;;;;;;;8.90;69.55;100051.44;4267684;33;33315;-91
2022/03/16 10:57:03;;;;;;;5.18;3.15;;;;;;;8.68;70.33;100052.31;4267228;33;33831;-92
2022/03/16 10:59:33;;;;;;;9.18;4.35;;;;;;;8.48;71.07;100050.56;4268181;33;33900;-90
2022/03/16 11:02:05;;;;;;;5.60;3.60;;;;;;;8.69;70.64;100066.94;4264846;33;35294;-89
2022/03/16 11:04:36;;;;;;;7.90;3.90;;;;;;;8.70;69.90;100059.19;4265432;33;33162;-92
2022/03/16 11:07:06;;;;;;;5.45;3.37;;;;;;;8.77;69.63;100049.72;4268396;33;33375;-91
2022/03/16 11:09:36;;;;;;;6.18;3.80;;;;;;;8.63;69.86;100073.00;4264805;33;33574;-91
2022/03/16 11:15:01;;;;;;;5.22;3.30;;;;;;;8.78;69.89;100072.13;4266776;33;32142;-90
2022/03/16 11:17:34;;;;;;;4.95;3.70;;;;;;;9.01;68.52;100079.00;4261551;33;32641;-91
2022/03/16 11:20:08;;;;;;;4.90;3.03;;;;;;;9.12;67.96;100080.72;4263964;33;33809;-90
2022/03/16 11:24:15;;;;;;;5.32;3.05;;;;;;;9.25;67.81;100078.97;4267981;33;33983;-90
2022/03/16 11:25:42;;;;;;;5.10;3.03;;;;;;;9.41;66.77;100082.41;4264271;33;34069;-90
2022/03/16 11:28:15;;;;;;;6.15;3.47;;;;;;;9.11;67.67;100091.06;4262828;33;32951;-90
2022/03/16 11:30:45;;;;;;;5.30;3.08;;;;;;;9.07;67.66;100085.06;4264417;33;33721;-90
2022/03/16 11:33:16;;;;;;;4.65;2.97;;;;;;;8.93;68.10;100095.41;4266028;33;34702;-90
2022/03/16 11:35:50;;;;;;;4.07;2.75;;;;;;;9.00;67.65;100093.69;4267040;33;34382;-91
2022/03/16 11:38:21;;;;;;;3.65;2.67;;;;;;;8.79;68.48;100089.38;4273074;33;31777;-91
2022/03/16 11:40:51;;;;;;;5.37;2.80;;;;;;;9.00;67.79;100091.09;4265816;33;32958;-93
2022/03/16 11:43:22;;;;;;;5.37;3.12;;;;;;;8.75;68.70;100098.00;4267613;33;34807;-90
2022/03/16 11:45:51;;;;;;;6.10;3.40;;;;;;;8.80;68.89;100098.88;4264399;33;33208;-90
2022/03/16 11:48:41;;;;;;;5.85;3.67;;;;;;;8.64;69.35;100097.97;4270223;33;33034;-91
2022/03/16 11:51:24;;;;;;;4.75;3.42;;;;;;;8.72;69.19;100103.16;4261696;33;34200;-91
2022/03/16 11:54:11;;;;;;;7.20;2.87;;;;;;;8.80;69.09;100096.28;4270068;33;34399;-90
2022/03/16 11:56:44;;;;;;;6.03;2.95;;;;;;;9.00;67.79;100092.81;4268998;33;33305;-90
2022/03/16 11:59:40;;;;;;;3.55;2.50;;;;;;;9.00;67.84;100096.28;4263779;33;33311;-90
2022/03/16 12:02:13;;;;;;;4.57;2.80;;;;;;;8.89;67.64;100106.62;4269669;33;33555;-91
2022/03/16 12:04:46;;;;;;;6.53;3.45;;;;;;;9.12;66.84;100101.44;4260808;33;33832;-91
2022/03/16 12:07:17;;;;;;;7.47;4.40;;;;;;;9.35;66.22;100103.12;4261812;33;33758;-92
2022/03/16 12:09:49;;;;;;;5.00;2.95;;;;;;;9.94;63.83;100106.44;4263037;33;34213;-90